Time;durP1;ratioP1;P1;durP2;ratioP2;P2;SDS_P1;SDS_P2;PMS_P1;PMS_P2;Temp;Humidity;BMP_temperature;BMP_pressure;BME280_temperature;BME280_humidity;BME280_pressure;Samples;Min_cycle;Max_cycle;Signal;HPM_P1;HPM_P2
2021/08/10 00:02:07;;;;;;;9.55;8.60;;;;;;;28.03;56.73;101487.68;1728560;82;21083;-49
2021/08/10 00:04:33;;;;;;;11.55;8.88;;;;;;;28.02;56.77;101488.67;1729865;82;21054;-49
2021/08/10 00:07:00;;;;;;;9.68;8.53;;;;;;;28.00;56.88;101490.63;1729101;82;21025;-49
2021/08/10 00:09:26;;;;;;;14.83;9.63;;;;;;;27.97;56.64;101489.05;1690708;84;21056;-49
2021/08/10 00:11:57;;;;;;;10.68;8.90;;;;;;;27.97;56.66;101497.55;1693900;83;21057;-50
2021/08/10 00:14:24;;;;;;;13.08;8.65;;;;;;;27.96;56.65;101491.86;1649299;86;21078;-50
2021/08/10 00:16:52;;;;;;;12.37;8.58;;;;;;;27.96;56.52;101498.06;1634489;86;21549;-49
2021/08/10 00:19:19;;;;;;;10.10;7.97;;;;;;;27.94;56.58;101493.78;1634682;85;21108;-49
2021/08/10 00:21:46;;;;;;;8.68;7.78;;;;;;;27.93;56.58;101498.27;1636633;86;21010;-49
2021/08/10 00:24:12;;;;;;;10.72;7.65;;;;;;;27.94;56.67;101493.78;1638968;86;21593;-49
2021/08/10 00:26:40;;;;;;;10.40;8.20;;;;;;;27.93;56.80;101490.25;1644970;86;21129;-49
2021/08/10 00:29:06;;;;;;;12.93;7.70;;;;;;;27.91;56.79;101499.36;1638520;86;21184;-49
2021/08/10 00:31:35;;;;;;;10.93;7.87;;;;;;;27.90;56.71;101493.67;1645384;86;22231;-49
2021/08/10 00:34:02;;;;;;;11.38;7.80;;;;;;;27.88;56.94;101498.30;1636852;86;21053;-49
2021/08/10 00:36:28;;;;;;;9.65;7.92;;;;;;;27.88;57.13;101499.64;1645812;86;21518;-49
2021/08/10 00:38:56;;;;;;;11.15;8.08;;;;;;;27.86;57.64;101497.58;1638309;86;21605;-49
2021/08/10 00:41:24;;;;;;;10.38;8.15;;;;;;;27.86;57.85;101506.42;1639148;86;21018;-50
2021/08/10 00:43:52;;;;;;;18.65;8.23;;;;;;;27.85;57.92;101501.21;1631184;86;21037;-50
2021/08/10 00:46:20;;;;;;;9.13;7.75;;;;;;;27.86;57.95;101502.92;1631420;87;21071;-49
2021/08/10 00:48:49;;;;;;;9.68;7.92;;;;;;;27.82;57.98;101499.62;1655776;86;21096;-50
2021/08/10 00:51:17;;;;;;;11.45;7.62;;;;;;;27.81;58.09;101503.30;1655649;87;21004;-50
2021/08/10 00:53:46;;;;;;;10.98;8.68;;;;;;;27.80;58.25;101507.44;1652249;87;21064;-49
2021/08/10 00:56:14;;;;;;;13.05;8.90;;;;;;;27.79;58.34;101503.05;1655623;87;21518;-49
2021/08/10 00:58:44;;;;;;;11.05;7.50;;;;;;;27.78;58.41;101501.37;1655552;87;21071;-50
2021/08/10 01:01:12;;;;;;;7.65;7.03;;;;;;;27.76;58.34;101505.99;1655675;87;21142;-51
2021/08/10 01:03:39;;;;;;;10.58;6.72;;;;;;;27.73;58.26;101498.20;1633455;87;21111;-48
2021/08/10 01:06:19;;;;;;;9.40;6.90;;;;;;;27.71;58.16;101498.82;1655639;87;21055;-49
2021/08/10 01:09:06;;;;;;;8.75;6.78;;;;;;;27.67;58.17;101493.36;1660660;86;21071;-48
2021/08/10 01:11:47;;;;;;;7.42;6.72;;;;;;;27.65;58.13;101492.64;1647886;86;21001;-48
2021/08/10 01:14:41;;;;;;;7.55;6.78;;;;;;;27.61;58.13;101492.52;1668255;86;21561;-48
2021/08/10 01:17:21;;;;;;;8.80;7.00;;;;;;;27.57;58.15;101489.73;1611918;87;21547;-49
2021/08/10 01:20:12;;;;;;;7.53;6.80;;;;;;;27.53;58.36;101486.47;1611689;88;21067;-48
2021/08/10 01:22:42;;;;;;;9.15;7.12;;;;;;;27.51;58.55;101486.23;1611555;88;21059;-48
2021/08/10 01:25:35;;;;;;;9.40;6.60;;;;;;;27.49;58.80;101484.16;1611256;88;21096;-48
2021/08/10 01:28:24;;;;;;;7.53;6.83;;;;;;;27.48;58.79;101482.45;1611297;87;21075;-49
2021/08/10 01:31:11;;;;;;;10.53;6.95;;;;;;;27.45;58.84;101484.05;1538545;93;21615;-49
2021/08/10 01:33:43;;;;;;;9.53;7.28;;;;;;;27.44;58.76;101477.84;1490673;95;21653;-49
2021/08/10 01:36:11;;;;;;;9.30;7.10;;;;;;;27.44;58.66;101483.67;1490849;96;21096;-48
2021/08/10 01:38:40;;;;;;;11.57;7.72;;;;;;;27.44;58.75;101483.67;1490917;96;21104;-48
2021/08/10 01:41:06;;;;;;;14.38;7.85;;;;;;;27.45;58.39;101480.05;1490590;96;21155;-48
2021/08/10 01:43:35;;;;;;;9.08;7.40;;;;;;;27.43;58.11;101479.31;1464373;96;21641;-48
2021/08/10 01:46:01;;;;;;;9.80;7.55;;;;;;;27.42;57.94;101482.95;1479111;95;21092;-49
2021/08/10 01:48:30;;;;;;;11.60;7.42;;;;;;;27.40;58.03;101479.06;1462594;97;21630;-48
2021/08/10 01:50:57;;;;;;;10.95;7.60;;;;;;;27.38;58.10;101476.53;1510218;94;21084;-49
2021/08/10 01:53:26;;;;;;;9.48;7.72;;;;;;;27.38;57.81;101481.02;1514674;93;21094;-49
2021/08/10 01:55:56;;;;;;;9.43;7.70;;;;;;;27.35;57.99;101479.43;1534034;92;21147;-48
2021/08/10 01:58:26;;;;;;;8.18;7.37;;;;;;;27.32;57.95;101474.80;1525640;93;21125;-49
2021/08/10 02:00:55;;;;;;;8.20;7.42;;;;;;;27.29;58.02;101470.54;1525674;92;21150;-48
2021/08/10 02:03:22;;;;;;;8.53;7.75;;;;;;;27.26;58.13;101470.80;1524955;93;21103;-49
2021/08/10 02:05:51;;;;;;;9.15;7.78;;;;;;;27.23;58.33;101479.05;1522482;93;21090;-49
2021/08/10 02:08:19;;;;;;;10.55;8.63;;;;;;;27.17;58.36;101466.18;1590019;88;21049;-48
2021/08/10 02:10:51;;;;;;;10.50;8.38;;;;;;;27.18;58.68;101470.53;1663183;83;21069;-48
2021/08/10 02:13:19;;;;;;;11.38;8.30;;;;;;;27.16;58.77;101472.99;1732348;82;21003;-48
2021/08/10 02:15:48;;;;;;;10.15;8.28;;;;;;;27.12;58.98;101473.70;1729348;82;20978;-48
2021/08/10 02:18:19;;;;;;;10.90;8.35;;;;;;;27.13;59.33;101475.41;1694074;83;21018;-48
2021/08/10 02:21:04;;;;;;;9.10;8.15;;;;;;;27.11;59.30;101468.48;1681638;85;21016;-49
2021/08/10 02:23:32;;;;;;;10.20;8.55;;;;;;;27.09;59.38;101470.42;1642536;86;21312;-49
2021/08/10 02:25:59;;;;;;;8.93;8.00;;;;;;;27.04;59.44;101473.45;1635397;86;21111;-48
2021/08/10 02:28:27;;;;;;;9.03;8.13;;;;;;;27.04;59.20;101470.78;1616809;86;21077;-49
2021/08/10 02:30:53;;;;;;;10.32;7.90;;;;;;;27.03;59.06;101478.45;1663377;86;21150;-48
2021/08/10 02:33:23;;;;;;;9.98;7.92;;;;;;;26.99;58.91;101472.12;1647669;86;21124;-48
2021/08/10 02:35:55;;;;;;;9.25;8.23;;;;;;;26.97;59.13;101481.61;1625385;86;21138;-47
2021/08/10 02:38:22;;;;;;;12.68;8.18;;;;;;;26.97;59.23;101475.41;1650844;86;21118;-48
2021/08/10 02:40:51;;;;;;;8.85;7.95;;;;;;;26.96;59.15;101483.89;1647047;86;21016;-48
2021/08/10 02:43:18;;;;;;;8.65;7.78;;;;;;;26.95;59.25;101472.87;1669014;85;21588;-48
2021/08/10 02:45:45;;;;;;;10.85;8.10;;;;;;;26.95;59.22;101470.67;1671065;85;21042;-48
2021/08/10 02:48:14;;;;;;;8.88;8.10;;;;;;;26.93;59.17;101470.80;1676289;85;21066;-48
2021/08/10 02:50:40;;;;;;;8.75;7.90;;;;;;;26.92;59.22;101469.09;1673517;85;21084;-49
2021/08/10 02:53:08;;;;;;;14.63;7.97;;;;;;;26.87;59.21;101459.27;1671648;85;21122;-49
2021/08/10 02:55:37;;;;;;;12.60;8.20;;;;;;;26.87;59.15;101462.42;1679727;84;21037;-48
2021/08/10 02:58:25;;;;;;;11.83;9.03;;;;;;;26.82;59.24;101460.09;1677197;85;21090;-48
2021/08/10 03:00:58;;;;;;;11.15;7.97;;;;;;;26.82;59.32;101468.11;1674608;85;21094;-48
2021/08/10 03:03:29;;;;;;;9.08;8.18;;;;;;;26.81;59.19;101469.06;1626426;88;21042;-49
2021/08/10 03:05:59;;;;;;;10.38;7.95;;;;;;;26.82;59.07;101467.25;1604595;88;21860;-48
2021/08/10 03:08:32;;;;;;;10.38;7.80;;;;;;;26.79;59.04;101464.33;1626285;88;21050;-49
2021/08/10 03:10:59;;;;;;;8.88;8.08;;;;;;;26.78;59.09;101459.12;1624233;88;21111;-48
2021/08/10 03:13:29;;;;;;;9.93;7.97;;;;;;;26.81;58.98;101465.57;1584488;88;21491;-48
2021/08/10 03:15:58;;;;;;;12.35;7.47;;;;;;;26.81;58.99;101455.71;1628571;88;21199;-48
2021/08/10 03:18:29;;;;;;;13.40;7.90;;;;;;;26.81;58.78;101461.56;1626371;88;21598;-48
2021/08/10 03:21:00;;;;;;;11.43;7.15;;;;;;;26.81;58.78;101461.56;1627313;88;21070;-49
2021/08/10 03:23:31;;;;;;;7.67;6.85;;;;;;;26.80;58.76;101459.37;1603573;88;21558;-48
2021/08/10 03:25:58;;;;;;;12.82;7.47;;;;;;;26.79;58.68;101457.66;1626482;88;21078;-49
2021/08/10 03:28:28;;;;;;;13.38;7.30;;;;;;;26.79;58.61;101453.65;1605162;88;21054;-48
2021/08/10 03:30:57;;;;;;;;;;;;;;;26.78;58.45;101447.96;1608264;88;21040;-48
2021/08/10 03:33:28;;;;;;;7.62;6.83;;;;;;;26.78;58.74;101458.64;1626396;88;20100;-49
2021/08/10 03:35:56;;;;;;;7.45;6.72;;;;;;;26.78;58.74;101458.64;1559570;91;21121;-50
2021/08/10 03:38:25;;;;;;;12.80;6.92;;;;;;;26.77;58.61;101459.59;1556035;91;21137;-50
2021/08/10 03:40:52;;;;;;;9.13;7.25;;;;;;;26.81;58.59;101454.89;1520691;93;21081;-49
2021/08/10 03:43:18;;;;;;;13.43;6.90;;;;;;;26.85;58.03;101455.02;1538386;90;21058;-49
2021/08/10 03:45:49;;;;;;;8.20;6.42;;;;;;;26.96;57.97;101458.52;1549387;91;21641;-50
2021/08/10 03:48:15;;;;;;;9.18;6.85;;;;;;;27.07;57.82;101457.20;1520642;93;21176;-49
2021/08/10 03:50:42;;;;;;;9.40;6.87;;;;;;;27.18;57.17;101458.52;1560520;91;21113;-49
2021/08/10 03:53:10;;;;;;;10.88;6.72;;;;;;;27.22;57.08;101461.30;1563247;89;21053;-49
2021/08/10 03:55:37;;;;;;;8.93;6.58;;;;;;;27.23;56.77;101463.02;1565699;90;21608;-49
2021/08/10 03:58:06;;;;;;;8.08;7.12;;;;;;;27.22;56.45;101461.30;1572224;90;21121;-49
2021/08/10 04:00:37;;;;;;;8.25;6.92;;;;;;;27.22;56.58;101461.30;1567451;90;21065;-49
2021/08/10 04:03:05;;;;;;;;;;;;;;;27.22;56.67;101462.63;1579105;89;21145;-49
2021/08/10 04:05:34;;;;;;;7.03;6.08;;;;;;;27.22;56.69;101469.31;1584263;89;20134;-50
2021/08/10 04:08:01;;;;;;;7.42;6.67;;;;;;;27.21;57.06;101470.30;1564147;88;21045;-50
2021/08/10 04:10:30;;;;;;;8.45;6.75;;;;;;;27.22;57.00;101471.16;1564877;90;21054;-49
2021/08/10 04:12:58;;;;;;;6.83;6.22;;;;;;;27.21;57.11;101471.64;1563568;91;21106;-49
2021/08/10 04:15:26;;;;;;;10.90;7.70;;;;;;;27.23;56.76;101476.38;1562290;91;21618;-49
2021/08/10 04:17:52;;;;;;;7.80;6.83;;;;;;;27.21;57.03;101472.98;1563945;91;21025;-48
2021/08/10 04:20:21;;;;;;;10.35;7.22;;;;;;;27.22;57.00;101474.66;1567421;91;21093;-49
2021/08/10 04:22:50;;;;;;;15.80;6.20;;;;;;;27.21;57.27;101476.98;1563835;91;21061;-49
2021/08/10 04:25:17;;;;;;;49.83;9.38;;;;;;;27.21;57.27;101476.98;1582928;88;21037;-49
2021/08/10 04:27:44;;;;;;;8.40;6.10;;;;;;;27.19;57.08;101472.73;1587999;89;21159;-49
2021/08/10 04:30:13;;;;;;;11.10;6.72;;;;;;;27.20;57.05;101475.78;1580438;88;21126;-49
2021/08/10 04:32:40;;;;;;;7.20;6.17;;;;;;;27.18;56.99;101470.53;1615620;85;21596;-49
2021/08/10 04:35:08;;;;;;;7.60;6.30;;;;;;;27.16;57.06;101471.66;1688502;84;21057;-49
2021/08/10 04:37:36;;;;;;;6.05;5.50;;;;;;;27.16;57.00;101472.48;1690215;84;21057;-49
2021/08/10 04:40:06;;;;;;;6.60;5.85;;;;;;;27.16;56.97;101471.14;1688128;84;21082;-49
2021/08/10 04:42:36;;;;;;;8.75;6.58;;;;;;;27.15;56.93;101464.12;1698677;83;21034;-49
2021/08/10 04:45:03;;;;;;;8.35;6.60;;;;;;;27.13;57.06;101462.53;1695327;83;21117;-49
2021/08/10 04:47:32;;;;;;;11.88;6.72;;;;;;;27.11;57.07;101455.98;1703516;83;21014;-49
2021/08/10 04:49:59;;;;;;;7.55;6.37;;;;;;;27.10;57.04;101461.45;1688711;83;21054;-49
2021/08/10 04:52:27;;;;;;;6.80;5.87;;;;;;;27.10;56.95;101458.28;1693385;83;20991;-49
2021/08/10 04:54:57;;;;;;;9.20;5.97;;;;;;;27.05;56.77;101444.45;1693554;83;21082;-50
2021/08/10 04:57:26;;;;;;;11.60;7.85;;;;;;;27.05;56.77;101444.45;1693981;83;21014;-49
2021/08/10 04:59:55;;;;;;;8.30;6.45;;;;;;;27.04;57.11;101451.23;1691042;83;21070;-49
2021/08/10 05:02:21;;;;;;;10.15;7.37;;;;;;;27.05;57.36;101454.28;1687937;84;21493;-49
2021/08/10 05:04:49;;;;;;;6.90;6.20;;;;;;;27.07;57.42;101456.34;1688396;83;21046;-49
2021/08/10 05:07:16;;;;;;;7.60;6.37;;;;;;;27.07;57.42;101456.34;1693773;83;21105;-50
2021/08/10 05:09:44;;;;;;;8.13;6.95;;;;;;;27.06;57.43;101448.80;1691474;83;21543;-49
2021/08/10 05:12:11;;;;;;;12.37;7.90;;;;;;;27.03;57.55;101441.05;1693023;83;21531;-49
2021/08/10 05:14:38;;;;;;;8.70;7.42;;;;;;;27.08;57.44;101451.38;1694583;82;21145;-50
2021/08/10 05:17:04;;;;;;;8.73;6.90;;;;;;;27.06;57.43;101450.14;1688509;83;21073;-49
2021/08/10 05:19:40;;;;;;;7.75;6.53;;;;;;;27.07;57.49;101442.51;1675405;84;21046;-50
2021/08/10 05:22:22;;;;;;;8.03;6.83;;;;;;;27.09;57.50;101449.91;1691001;83;21819;-49
2021/08/10 05:24:50;;;;;;;11.57;7.22;;;;;;;27.11;57.78;101452.45;1700972;83;21050;-49
2021/08/10 05:27:18;;;;;;;8.08;6.95;;;;;;;27.12;57.55;101449.66;1689673;84;20966;-50
2021/08/10 05:29:45;;;;;;;8.65;7.08;;;;;;;27.15;57.48;101444.08;1689435;83;21014;-49
2021/08/10 05:32:13;;;;;;;20.80;8.20;;;;;;;27.17;57.25;101448.81;1662523;85;21558;-50
2021/08/10 05:34:39;;;;;;;7.78;6.87;;;;;;;27.21;57.42;101456.95;1689837;83;21058;-49
2021/08/10 05:37:08;;;;;;;10.80;7.35;;;;;;;27.24;57.57;101464.70;1670066;83;21053;-49
2021/08/10 05:39:38;;;;;;;8.38;7.60;;;;;;;27.31;57.54;101462.39;1690155;83;21034;-49
2021/08/10 05:42:06;;;;;;;8.58;7.00;;;;;;;27.38;57.44;101460.48;1691316;83;21030;-49
2021/08/10 05:44:34;;;;;;;11.10;7.28;;;;;;;27.47;57.32;101462.05;1689463;83;21097;-50
2021/08/10 05:47:03;;;;;;;7.28;6.58;;;;;;;27.54;57.02;101467.25;1689209;84;21029;-49
2021/08/10 05:49:30;;;;;;;8.70;8.00;;;;;;;27.58;56.68;101470.89;1733015;82;21526;-49
2021/08/10 05:51:57;;;;;;;7.70;6.85;;;;;;;27.61;56.41;101465.78;1693681;83;21586;-49
2021/08/10 05:54:25;;;;;;;7.62;6.30;;;;;;;27.64;56.41;101466.86;1688813;83;21064;-49
2021/08/10 05:56:53;;;;;;;8.00;7.22;;;;;;;27.67;56.35;101466.63;1682218;83;21454;-49
2021/08/10 05:59:20;;;;;;;9.48;7.72;;;;;;;27.71;56.36;101465.39;1695778;83;21453;-49
2021/08/10 06:01:47;;;;;;;8.15;7.10;;;;;;;27.77;56.39;101459.54;1698772;83;21061;-50
2021/08/10 06:04:15;;;;;;;7.35;6.70;;;;;;;27.82;56.15;101460.02;1692477;83;21053;-49
2021/08/10 06:06:43;;;;;;;10.25;7.30;;;;;;;27.91;56.12;101464.59;1682585;84;21006;-50
2021/08/10 06:09:10;;;;;;;20.35;10.18;;;;;;;27.97;56.10;101453.41;1698779;84;21018;-49
2021/08/10 06:11:40;;;;;;;8.95;7.97;;;;;;;28.07;55.86;101459.69;1680507;83;21648;-49
2021/08/10 06:14:08;;;;;;;13.83;7.47;;;;;;;28.14;55.69;101458.21;1691106;83;21045;-49
2021/08/10 06:16:35;;;;;;;10.13;7.35;;;;;;;28.20;55.61;101456.36;1694526;84;21455;-49
2021/08/10 06:19:04;;;;;;;9.58;8.58;;;;;;;28.24;55.22;101459.12;1690354;83;21073;-49
2021/08/10 06:21:31;;;;;;;10.28;7.85;;;;;;;28.26;55.29;101462.53;1693759;83;21112;-49
2021/08/10 06:24:00;;;;;;;14.87;8.73;;;;;;;28.29;55.45;101451.58;1695029;83;21095;-49
2021/08/10 06:26:27;;;;;;;10.78;7.58;;;;;;;28.32;55.37;101453.98;1742180;82;21042;-49
2021/08/10 06:28:55;;;;;;;12.33;8.05;;;;;;;28.36;55.45;101466.63;1730776;82;21157;-49
2021/08/10 06:31:22;;;;;;;9.90;7.22;;;;;;;28.40;55.40;101456.84;1719740;82;21006;-49
2021/08/10 06:33:50;;;;;;;9.10;7.05;;;;;;;28.44;55.48;101460.96;1729904;82;21092;-50
2021/08/10 06:36:19;;;;;;;10.78;6.97;;;;;;;28.47;55.40;101462.53;1723372;82;21053;-49
2021/08/10 06:38:45;;;;;;;15.20;12.53;;;;;;;28.49;55.09;101453.40;1727908;82;21557;-50
2021/08/10 06:41:13;;;;;;;10.35;8.03;;;;;;;28.53;55.26;101461.53;1689880;83;21109;-50
2021/08/10 06:43:41;;;;;;;8.70;7.70;;;;;;;28.56;55.07;101458.64;1705442;83;21073;-50
2021/08/10 06:46:20;;;;;;;9.80;7.85;;;;;;;28.58;55.09;101464.70;1694146;83;21482;-49
2021/08/10 06:48:47;;;;;;;14.78;8.00;;;;;;;28.64;55.10;101461.50;1706816;83;21194;-49
2021/08/10 06:51:15;;;;;;;7.87;7.12;;;;;;;28.69;54.80;101465.95;1701200;83;21490;-49
2021/08/10 06:53:42;;;;;;;9.23;7.75;;;;;;;28.74;54.68;101464.22;1708629;82;21023;-49
2021/08/10 06:56:10;;;;;;;9.18;7.67;;;;;;;28.76;54.68;101464.45;1696992;83;21036;-49
2021/08/10 06:58:37;;;;;;;8.38;7.00;;;;;;;28.80;54.85;101463.20;1714250;82;21042;-49
2021/08/10 07:01:05;;;;;;;8.60;7.67;;;;;;;28.85;54.76;101466.31;1709662;82;21031;-50
2021/08/10 07:03:33;;;;;;;11.38;7.45;;;;;;;28.89;54.61;101468.26;1706903;82;21034;-50
2021/08/10 07:06:00;;;;;;;10.48;7.62;;;;;;;28.90;54.38;101460.08;1706905;83;21113;-49
2021/08/10 07:08:28;;;;;;;8.00;7.20;;;;;;;28.94;54.28;101459.31;1666420;85;21147;-49
2021/08/10 07:10:55;;;;;;;10.43;7.85;;;;;;;28.96;54.38;101458.20;1657551;85;21035;-48
2021/08/10 07:13:22;;;;;;;8.30;7.60;;;;;;;29.00;54.49;101463.31;1680588;84;21529;-49
2021/08/10 07:15:50;;;;;;;11.00;7.67;;;;;;;29.06;54.19;101460.91;1659295;84;20995;-49
2021/08/10 07:18:20;;;;;;;10.05;7.97;;;;;;;29.11;53.92;101463.19;1663426;85;21047;-50
2021/08/10 07:20:48;;;;;;;11.97;7.92;;;;;;;29.16;54.05;101465.84;1629610;85;21502;-49
2021/08/10 07:23:16;;;;;;;8.43;7.53;;;;;;;29.24;54.00;101461.17;1723906;81;20973;-50
2021/08/10 07:25:45;;;;;;;8.25;7.08;;;;;;;29.29;53.82;101461.59;1722652;82;21041;-50
2021/08/10 07:28:11;;;;;;;7.90;7.17;;;;;;;29.36;53.68;101464.09;1680115;84;21029;-49
2021/08/10 07:30:39;;;;;;;7.90;6.95;;;;;;;29.40;53.55;101469.54;1671924;83;21037;-49
2021/08/10 07:33:07;;;;;;;8.80;7.97;;;;;;;29.45;53.52;101473.50;1690274;83;21065;-54
2021/08/10 07:35:34;;;;;;;8.93;7.87;;;;;;;29.50;53.54;101475.77;1658138;85;20972;-50
2021/08/10 07:38:01;;;;;;;14.40;7.53;;;;;;;29.54;53.63;101479.88;1657568;85;21200;-50
2021/08/10 07:40:29;;;;;;;10.95;7.65;;;;;;;29.60;53.24;101469.94;1659585;85;21093;-50
2021/08/10 07:42:56;;;;;;;8.88;7.72;;;;;;;29.61;53.26;101464.94;1703366;82;21030;-50
2021/08/10 07:45:23;;;;;;;8.33;7.37;;;;;;;29.62;53.56;101463.45;1664882;85;21630;-50
2021/08/10 07:47:50;;;;;;;8.68;7.78;;;;;;;29.63;53.40;101464.31;1701355;83;21045;-49
2021/08/10 07:50:19;;;;;;;9.03;8.13;;;;;;;29.63;53.36;101465.65;1658576;84;21009;-49
2021/08/10 07:52:48;;;;;;;8.90;8.08;;;;;;;29.63;53.47;101457.12;1719520;82;21011;-50
2021/08/10 07:55:14;;;;;;;8.60;7.70;;;;;;;29.65;53.29;101460.99;1731681;81;21026;-50
2021/08/10 07:57:42;;;;;;;12.13;9.43;;;;;;;29.66;53.51;101452.80;1732823;81;21036;-49
2021/08/10 08:00:10;;;;;;;12.95;9.88;;;;;;;29.68;53.74;101453.51;1729938;81;21036;-50
2021/08/10 08:02:38;;;;;;;11.22;10.08;;;;;;;29.70;53.59;101450.67;1728877;80;20961;-50
2021/08/10 08:05:07;;;;;;;10.00;8.95;;;;;;;29.72;53.39;101455.41;1721506;81;21084;-50
2021/08/10 08:07:35;;;;;;;13.20;9.00;;;;;;;29.74;53.71;101454.81;1732910;81;21054;-50
2021/08/10 08:10:03;;;;;;;10.03;8.78;;;;;;;29.75;53.75;101455.17;1723567;81;21088;-49
2021/08/10 08:12:32;;;;;;;9.05;8.15;;;;;;;29.78;53.72;101448.17;1725653;82;21546;-50
2021/08/10 08:14:59;;;;;;;9.38;8.23;;;;;;;29.82;53.72;101446.91;1713513;81;21034;-50
2021/08/10 08:17:25;;;;;;;15.93;9.50;;;;;;;29.86;53.81;101444.33;1731463;81;21061;-50
2021/08/10 08:19:52;;;;;;;21.42;9.60;;;;;;;29.89;53.33;101442.69;1731322;81;21533;-50
2021/08/10 08:22:19;;;;;;;11.28;7.55;;;;;;;29.93;53.44;101441.42;1726785;82;21026;-49
2021/08/10 08:24:47;;;;;;;12.63;9.75;;;;;;;29.97;53.27;101440.14;1710604;81;21526;-49
2021/08/10 08:27:14;;;;;;;11.83;8.53;;;;;;;30.03;53.14;101436.89;1714976;81;21165;-50
2021/08/10 08:29:41;;;;;;;11.12;7.35;;;;;;;30.07;53.04;101434.27;1727261;81;21546;-50
2021/08/10 08:32:09;;;;;;;12.37;7.22;;;;;;;30.12;52.99;101430.69;1716554;82;21035;-50
2021/08/10 08:34:36;;;;;;;9.88;8.03;;;;;;;30.17;52.79;101425.72;1730377;82;21564;-49
2021/08/10 08:37:04;;;;;;;9.03;7.40;;;;;;;30.20;52.81;101422.76;1688688;83;21131;-49
2021/08/10 08:39:32;;;;;;;11.50;7.42;;;;;;;30.25;52.69;101420.99;1725286;82;21558;-49
2021/08/10 08:42:02;;;;;;;14.20;8.40;;;;;;;30.28;52.77;101417.52;1691992;83;21085;-50
2021/08/10 08:44:36;;;;;;;14.98;7.90;;;;;;;30.32;52.68;101416.27;1691266;83;21068;-50
2021/08/10 08:47:06;;;;;;;9.90;8.53;;;;;;;30.36;52.55;101421.70;1691488;83;21094;-49
2021/08/10 08:49:35;;;;;;;9.85;7.47;;;;;;;30.38;52.51;101415.69;1679271;84;21017;-49
2021/08/10 08:52:08;;;;;;;10.50;7.97;;;;;;;30.41;52.65;101410.05;1688344;83;21541;-50
2021/08/10 08:54:36;;;;;;;11.53;8.20;;;;;;;30.45;52.34;101413.28;1688449;83;21046;-50
2021/08/10 08:57:04;;;;;;;12.95;9.05;;;;;;;30.50;52.28;101411.02;1625406;83;21041;-49
2021/08/10 08:59:32;;;;;;;11.40;7.92;;;;;;;30.54;52.19;101412.42;1691399;83;21049;-49
2021/08/10 09:02:00;;;;;;;9.85;7.92;;;;;;;30.58;52.07;101407.59;1724893;82;21014;-51
2021/08/10 09:04:27;;;;;;;9.93;8.08;;;;;;;30.62;51.57;101411.67;1720399;82;21109;-49
2021/08/10 09:06:57;;;;;;;10.53;8.05;;;;;;;30.66;51.39;101414.42;1726242;82;21010;-50
2021/08/10 09:09:29;;;;;;;8.48;7.67;;;;;;;30.68;51.02;101403.03;1727358;82;21005;-49
2021/08/10 09:12:15;;;;;;;51.87;10.60;;;;;;;30.73;51.20;101406.14;1723508;82;20999;-49
2021/08/10 09:14:49;;;;;;;9.45;7.42;;;;;;;30.78;50.92;101406.52;1729468;82;21835;-50
2021/08/10 09:17:21;;;;;;;11.73;8.28;;;;;;;30.84;51.00;101405.93;1728845;82;21060;-49
2021/08/10 09:19:53;;;;;;;8.53;7.60;;;;;;;30.89;50.33;101406.37;1669351;85;21124;-50
2021/08/10 09:22:31;;;;;;;9.45;7.90;;;;;;;30.94;50.54;101406.77;1672034;85;21101;-49
2021/08/10 09:25:06;;;;;;;8.00;7.10;;;;;;;31.00;50.27;101406.16;1693984;83;21059;-49
2021/08/10 09:27:38;;;;;;;9.43;8.25;;;;;;;31.05;50.33;101402.55;1645818;86;21106;-49
2021/08/10 09:30:17;;;;;;;9.30;8.23;;;;;;;31.09;50.07;101398.08;1648882;85;21085;-49
2021/08/10 09:32:56;;;;;;;10.63;8.23;;;;;;;31.12;50.11;101395.56;1639455;86;21129;-49
2021/08/10 09:35:25;;;;;;;11.33;8.05;;;;;;;31.17;50.29;101398.66;1659501;85;21053;-49
2021/08/10 09:38:11;;;;;;;10.08;8.85;;;;;;;31.22;49.77;101399.06;1605228;87;21089;-50
2021/08/10 09:40:43;;;;;;;9.63;8.58;;;;;;;31.26;50.15;101396.42;1637129;86;21548;-49
2021/08/10 09:46:54;;;;;;;12.10;8.23;;;;;;;31.36;50.26;101387.79;1617536;86;21171;-49
2021/08/10 09:49:23;;;;;;;9.58;8.38;;;;;;;31.45;49.21;101398.17;1605781;87;21174;-49
2021/08/10 09:51:54;;;;;;;11.43;8.65;;;;;;;31.48;48.74;101390.64;1623824;87;21036;-49
2021/08/10 09:54:21;;;;;;;11.95;8.50;;;;;;;31.53;48.64;101391.01;1622354;86;21078;-49
2021/08/10 09:56:55;;;;;;;12.47;8.53;;;;;;;31.55;48.38;101385.50;1620407;87;21086;-49
2021/08/10 09:59:24;;;;;;;9.70;8.70;;;;;;;31.57;48.36;101383.01;1618183;88;21125;-49
2021/08/10 10:01:56;;;;;;;10.28;8.80;;;;;;;31.61;48.53;101388.92;1617912;87;21058;-49
2021/08/10 10:04:27;;;;;;;13.90;8.73;;;;;;;31.64;48.71;101385.41;1618513;86;21138;-50
2021/08/10 10:07:11;;;;;;;12.45;8.20;;;;;;;31.65;48.58;101385.77;1578367;89;21070;-50
2021/08/10 10:09:40;;;;;;;8.75;7.62;;;;;;;31.67;48.45;101385.13;1574861;90;21040;-50
2021/08/10 10:12:08;;;;;;;8.90;8.05;;;;;;;31.69;48.07;101383.13;1574105;89;21074;-50
2021/08/10 10:14:38;;;;;;;11.10;8.25;;;;;;;31.74;47.72;101382.63;1580191;90;21041;-49
2021/08/10 10:17:05;;;;;;;16.45;7.87;;;;;;;31.76;47.61;101378.79;1602998;87;21054;-50
2021/08/10 10:19:38;;;;;;;9.18;7.20;;;;;;;31.81;47.44;101376.50;1636135;86;21536;-49
2021/08/10 10:22:14;;;;;;;8.75;7.20;;;;;;;31.83;47.42;101383.91;1624187;86;21098;-50
2021/08/10 10:24:57;;;;;;;9.93;7.47;;;;;;;31.88;47.45;101377.55;1630378;86;21221;-50
2021/08/10 10:27:24;;;;;;;11.93;7.70;;;;;;;31.92;47.02;101382.97;1567012;90;21107;-50
2021/08/10 10:29:56;;;;;;;23.62;9.53;;;;;;;31.98;47.09;101380.20;1561084;89;22423;-49
2021/08/10 10:32:25;;;;;;;14.50;7.45;;;;;;;32.00;47.14;101375.51;1571164;90;21116;-49
2021/08/10 10:34:52;;;;;;;9.73;6.85;;;;;;;32.03;46.34;101375.18;1570302;91;21574;-50
2021/08/10 10:37:24;;;;;;;10.82;6.95;;;;;;;32.06;46.16;101381.12;1573758;91;21138;-50
2021/08/10 10:40:00;;;;;;;7.30;6.60;;;;;;;32.08;45.84;101370.19;1508888;94;21125;-50
2021/08/10 10:42:27;;;;;;;8.10;6.20;;;;;;;32.11;45.77;101377.11;1472277;95;21307;-50
2021/08/10 10:44:53;;;;;;;7.78;6.55;;;;;;;32.13;45.75;101370.54;1549769;91;21097;-50
2021/08/10 10:47:29;;;;;;;9.50;7.00;;;;;;;32.17;45.34;101369.75;1553766;92;21129;-50
2021/08/10 10:50:05;;;;;;;13.13;6.62;;;;;;;32.20;45.92;101379.69;1554650;92;21068;-50
2021/08/10 10:52:34;;;;;;;11.65;6.72;;;;;;;32.26;45.57;101376.86;1555960;92;21625;-49
2021/08/10 10:55:04;;;;;;;10.45;6.70;;;;;;;32.30;45.57;101371.01;1556278;90;21097;-49
2021/08/10 10:57:35;;;;;;;13.35;8.23;;;;;;;32.36;45.36;101369.52;1538019;92;21077;-49
2021/08/10 11:00:12;;;;;;;10.60;9.50;;;;;;;32.40;44.80;101368.19;1541336;92;22289;-50
2021/08/10 11:02:38;;;;;;;11.12;8.55;;;;;;;32.41;45.17;101368.05;1536558;92;21122;-49
2021/08/10 11:05:17;;;;;;;12.78;8.88;;;;;;;32.43;44.78;101357.11;1584496;89;21085;-49
2021/08/10 11:07:46;;;;;;;13.58;7.70;;;;;;;32.46;45.23;101358.19;1588178;88;21049;-48
2021/08/10 11:10:43;;;;;;;10.85;7.70;;;;;;;32.47;45.20;101355.33;1593937;88;21067;-49
2021/08/10 11:13:26;;;;;;;6.65;6.00;;;;;;;32.49;45.29;101347.08;1603244;88;21101;-48
2021/08/10 11:15:55;;;;;;;6.33;5.83;;;;;;;32.53;44.92;101361.42;1559986;90;21072;-50
2021/08/10 11:18:23;;;;;;;9.85;6.25;;;;;;;32.56;44.62;101354.88;1560841;91;21100;-49
2021/08/10 11:20:59;;;;;;;6.35;5.78;;;;;;;32.56;44.40;101354.88;1561187;90;21648;-50
2021/08/10 11:23:35;;;;;;;8.10;5.87;;;;;;;32.57;44.35;101357.89;1560224;91;21605;-49
2021/08/10 11:26:09;;;;;;;6.12;5.53;;;;;;;32.59;44.33;101353.19;1569211;90;21528;-49
2021/08/10 11:31:34;;;;;;;6.17;5.62;;;;;;;32.63;44.23;101349.16;1523054;93;21162;-48
2021/08/10 11:34:01;;;;;;;5.60;5.20;;;;;;;32.65;44.16;101347.16;1520367;92;21646;-49
2021/08/10 11:36:29;;;;;;;9.25;6.20;;;;;;;32.66;43.96;101348.86;1544203;90;21058;-50
2021/08/10 11:39:08;;;;;;;7.20;5.60;;;;;;;32.69;43.91;101347.17;1577393;89;21081;-50
2021/08/10 11:41:38;;;;;;;6.17;5.22;;;;;;;32.71;44.45;101341.11;1527081;92;21137;-50